createdAt,value
2019-02-26T01:03:13.699Z,77.10
2019-02-26T01:05:45.497Z,79.00
2019-02-26T01:08:19.829Z,79.20
2019-02-26T01:10:52.809Z,79.80
2019-02-26T01:13:25.621Z,77.00
2019-02-26T01:16:02.036Z,79.40
2019-02-26T01:18:39.973Z,77.90
2019-02-26T01:21:22.136Z,79.60
2019-02-26T01:23:56.520Z,79.30
2019-02-26T01:26:29.550Z,78.70
2019-02-26T01:29:00.998Z,78.20
2019-02-26T01:31:33.967Z,78.30
2019-02-26T01:34:12.000Z,77.40
2019-02-26T01:36:47.822Z,78.40
2019-02-26T01:39:23.404Z,79.90
2019-02-26T01:42:13.388Z,79.70
2019-02-26T01:44:44.642Z,79.10
2019-02-26T01:47:17.818Z,79.00
2019-02-26T01:49:52.936Z,78.80
2019-02-26T01:52:24.334Z,80.40
2019-02-26T01:54:57.905Z,78.70
2019-02-26T01:57:31.756Z,79.60
2019-02-26T02:00:06.447Z,79.70
2019-02-26T02:33:26.672Z,81.00
2019-02-26T02:36:11.490Z,81.70
2019-02-26T02:38:44.185Z,81.40
2019-02-26T02:41:47.986Z,82.90
2019-02-26T02:48:00.327Z,83.30
2019-02-26T02:50:44.309Z,83.00
2019-02-26T02:53:24.526Z,82.10
2019-02-26T02:56:03.847Z,83.50
2019-02-26T02:58:46.881Z,82.90
2019-02-26T03:01:37.851Z,83.10
2019-02-26T03:04:19.848Z,84.50
2019-02-26T03:06:55.590Z,84.60
2019-02-26T03:15:35.685Z,84.20
2019-02-26T03:18:14.899Z,83.70
2019-02-26T03:20:47.426Z,83.20
2019-02-26T03:23:20.047Z,83.80
2019-02-26T03:25:52.911Z,82.60
2019-02-26T03:28:24.646Z,84.50
2019-02-26T03:30:59.082Z,83.40
2019-02-26T03:33:30.737Z,82.70
2019-02-26T03:36:05.483Z,82.70
2019-02-26T03:38:40.857Z,83.90
2019-02-26T03:41:23.499Z,83.90
2019-02-26T03:44:08.761Z,84.40
2019-02-26T03:47:07.379Z,83.00
2019-02-26T03:49:46.004Z,82.80
2019-02-26T03:55:20.215Z,83.90
2019-02-26T03:58:03.976Z,82.50
2019-02-26T04:00:41.702Z,83.50
2019-02-26T04:03:12.457Z,83.20
2019-02-26T04:06:36.606Z,83.80
2019-02-26T04:08:39.120Z,84.40
2019-02-26T04:11:17.594Z,82.50
2019-02-26T04:14:03.922Z,84.30
2019-02-26T04:18:54.323Z,84.20
2019-02-26T04:19:31.909Z,84.00
2019-02-26T04:22:32.079Z,82.80
2019-02-26T04:25:36.523Z,83.60
2019-02-26T04:28:19.496Z,82.70
2019-02-26T04:31:47.075Z,83.30
2019-02-26T04:34:45.638Z,83.70
2019-02-26T05:47:08.029Z,83.00
2019-02-26T05:50:01.860Z,81.80
2019-02-26T05:52:35.939Z,82.10
2019-02-26T05:55:07.359Z,82.70
2019-02-26T07:03:24.947Z,79.30
2019-02-26T07:05:57.037Z,78.90
2019-02-26T07:08:30.924Z,79.00
2019-02-26T07:11:03.856Z,79.40
2019-02-26T07:13:36.714Z,79.40
2019-02-26T07:16:08.753Z,78.90
2019-02-26T07:18:40.777Z,79.00
2019-02-26T07:21:15.130Z,78.50
2019-02-26T07:27:06.743Z,77.50
2019-02-26T07:29:41.937Z,76.40
2019-02-26T07:32:15.445Z,75.20
2019-02-26T07:34:49.691Z,76.80
2019-02-26T07:37:20.949Z,77.50
2019-02-26T07:42:23.131Z,75.60
2019-02-26T07:44:56.906Z,72.40
2019-02-26T07:47:31.242Z,71.80
2019-02-26T07:50:04.647Z,70.60
2019-02-26T07:52:36.813Z,68.20
2019-02-26T07:57:45.445Z,68.40
2019-02-26T08:05:26.030Z,69.20
2019-02-26T08:07:57.592Z,66.60
2019-02-26T08:10:28.958Z,67.40
2019-02-26T08:13:01.528Z,70.30
2019-02-26T08:15:35.293Z,66.10
2019-02-26T08:18:07.361Z,68.10
2019-02-26T08:20:40.304Z,67.80
2019-02-26T08:23:14.870Z,68.10
2019-02-26T08:25:46.470Z,69.70
2019-02-26T08:28:20.842Z,69.50
2019-02-26T08:30:52.891Z,63.30
2019-02-26T08:35:56.545Z,63.80
2019-02-26T08:38:29.999Z,62.30
2019-02-26T08:41:01.205Z,66.00
2019-02-26T08:43:33.870Z,60.70
2019-02-26T08:46:07.309Z,60.80
2019-02-26T08:48:39.488Z,67.70
2019-02-26T08:51:14.281Z,65.40
2019-02-26T08:53:46.980Z,68.10
2019-02-26T08:56:18.911Z,58.90
2019-02-26T09:03:55.830Z,58.20
2019-02-26T09:06:27.746Z,58.20
2019-02-26T09:09:00.175Z,57.50
2019-02-26T09:11:36.983Z,57.90
2019-02-26T09:14:09.679Z,57.40
2019-02-26T09:16:41.826Z,57.00
2019-02-26T09:19:13.037Z,56.50
2019-02-26T09:21:45.267Z,56.40
2019-02-26T09:26:49.468Z,58.70
2019-02-26T09:29:23.385Z,56.50
2019-02-26T09:31:55.217Z,57.10
2019-02-26T09:34:28.701Z,56.30
2019-02-26T09:37:01.183Z,58.70
2019-02-26T09:39:34.602Z,57.10
2019-02-26T09:42:09.244Z,57.20
2019-02-26T09:44:41.122Z,58.30
2019-02-26T09:49:44.895Z,54.80
2019-02-26T09:52:18.395Z,55.50
2019-02-26T09:54:51.108Z,54.10
2019-02-26T09:57:24.218Z,54.40
2019-02-26T09:59:58.197Z,54.90
2019-02-26T10:02:29.932Z,54.80
2019-02-26T10:05:03.156Z,55.80
2019-02-26T10:07:36.152Z,54.90
2019-02-26T10:10:13.593Z,54.20
2019-02-26T10:15:16.479Z,55.50
2019-02-26T10:17:47.790Z,55.40
2019-02-26T10:20:24.793Z,53.90
2019-02-26T10:22:57.209Z,53.70
2019-02-26T10:25:29.352Z,53.70
2019-02-26T10:28:05.708Z,54.80
2019-02-26T10:30:38.892Z,53.50
2019-02-26T10:33:17.633Z,54.90
2019-02-26T10:35:49.541Z,53.60
2019-02-26T10:38:20.685Z,54.00
2019-02-26T10:40:56.536Z,54.00
2019-02-26T10:43:26.537Z,53.90
2019-02-26T10:45:58.032Z,53.90
2019-02-26T10:48:30.893Z,54.30
2019-02-26T10:53:35.385Z,56.00
2019-02-26T10:56:07.923Z,54.80
2019-02-26T10:58:40.792Z,55.60
2019-02-26T11:01:12.740Z,55.00
2019-02-26T11:03:46.841Z,55.80
2019-02-26T11:06:19.187Z,54.50
2019-02-26T11:08:52.919Z,54.70
2019-02-26T11:11:24.275Z,54.90
2019-02-26T11:13:55.904Z,54.90
2019-02-26T11:19:01.857Z,55.50
2019-02-26T11:21:34.664Z,54.60
2019-02-26T11:24:08.798Z,54.60
2019-02-26T11:26:41.374Z,55.80
2019-02-26T11:29:13.831Z,53.70
2019-02-26T11:31:47.710Z,53.60
2019-02-26T11:34:19.299Z,55.60
2019-02-26T11:36:54.258Z,54.10
2019-02-26T11:39:26.218Z,54.60
2019-02-26T11:41:59.386Z,55.40
2019-02-26T11:44:31.787Z,53.90
2019-02-26T11:47:03.275Z,55.10
2019-02-26T11:49:37.013Z,55.30
2019-02-26T11:52:07.918Z,54.30
2019-02-26T11:57:13.398Z,55.00
2019-02-26T11:59:45.177Z,54.80
2019-02-26T12:02:25.182Z,53.90
2019-02-26T12:07:24.709Z,52.70
2019-02-26T12:09:57.951Z,52.20
2019-02-26T12:12:31.132Z,52.10
2019-02-26T12:15:04.436Z,53.40
2019-02-26T12:17:38.986Z,52.50
2019-02-26T12:20:14.758Z,50.50
2019-02-26T12:22:47.994Z,51.20
2019-02-26T12:25:20.143Z,52.30
2019-02-26T12:27:52.706Z,52.20
2019-02-26T12:30:24.131Z,52.70
2019-02-26T12:32:55.592Z,51.20
2019-02-26T12:35:29.506Z,52.20
2019-02-26T12:38:16.965Z,51.30
2019-02-26T12:40:37.186Z,51.20
2019-02-26T12:43:11.044Z,51.00
2019-02-26T12:45:42.165Z,52.00
2019-02-26T12:48:16.348Z,51.70
2019-02-26T12:50:46.792Z,51.60
2019-02-26T12:53:20.583Z,50.90
2019-02-26T12:55:54.256Z,52.10
2019-02-26T12:58:27.756Z,51.70
2019-02-26T13:00:59.077Z,51.30
2019-02-26T13:06:05.172Z,51.00
2019-02-26T13:08:39.673Z,51.00
2019-02-26T13:11:11.786Z,52.40
2019-02-26T13:13:44.749Z,51.60
2019-02-26T13:16:17.333Z,50.60
2019-02-26T13:18:51.551Z,50.00
2019-02-26T13:21:22.487Z,49.20
2019-02-26T13:23:58.760Z,49.50
2019-02-26T13:26:27.202Z,50.00
2019-02-26T13:29:00.349Z,49.80
2019-02-26T13:31:37.194Z,50.20
2019-02-26T13:34:13.805Z,49.80
2019-02-26T13:36:43.648Z,49.70
2019-02-26T13:39:21.975Z,49.50
2019-02-26T13:41:54.392Z,50.00
2019-02-26T13:44:21.567Z,50.00
2019-02-26T13:46:53.931Z,49.10
2019-02-26T13:49:25.592Z,49.20
2019-02-26T13:51:57.299Z,50.10
2019-02-26T13:56:59.539Z,51.00
2019-02-26T13:59:31.394Z,49.20
2019-02-26T14:02:03.094Z,50.40
2019-02-26T14:04:34.993Z,49.90
2019-02-26T14:07:11.260Z,50.00
2019-02-26T14:09:44.000Z,50.40
2019-02-26T14:12:18.053Z,49.70
2019-02-26T14:14:52.909Z,50.30
2019-02-26T14:22:26.113Z,48.70
2019-02-26T14:24:58.178Z,48.60
2019-02-26T14:27:29.775Z,48.20
2019-02-26T14:30:01.687Z,48.50
2019-02-26T14:32:35.545Z,49.40
2019-02-26T14:35:08.121Z,48.00
2019-02-26T14:37:40.988Z,47.70
2019-02-26T14:40:13.072Z,47.30
2019-02-26T14:42:46.312Z,47.00
2019-02-26T14:45:18.118Z,46.70
2019-02-26T14:47:52.308Z,46.00
2019-02-26T14:50:23.924Z,46.70
2019-02-26T14:52:55.869Z,46.00
2019-02-26T14:55:27.492Z,46.00
2019-02-26T14:57:59.462Z,45.70
2019-02-26T15:00:32.308Z,45.50
2019-02-26T15:03:03.831Z,45.80
2019-02-26T15:05:36.186Z,45.30
2019-02-26T15:08:09.642Z,45.30
2019-02-26T15:10:42.302Z,45.40
2019-02-26T15:13:14.345Z,45.60
2019-02-26T15:15:45.727Z,45.80
2019-02-26T15:18:17.369Z,46.70
2019-02-26T15:20:49.886Z,46.40
2019-02-26T15:23:21.834Z,47.10
2019-02-26T15:28:25.249Z,46.10
2019-02-26T15:30:58.273Z,46.70
2019-02-26T15:33:29.874Z,47.20
2019-02-26T15:36:02.986Z,46.90
2019-02-26T15:38:36.048Z,48.60
2019-02-26T15:41:08.861Z,47.10
2019-02-26T15:43:41.722Z,50.00
2019-02-26T15:46:15.895Z,47.50
2019-02-26T15:51:22.095Z,48.60
2019-02-26T15:53:55.672Z,49.30
2019-02-26T15:56:29.760Z,49.70
2019-02-26T15:59:04.534Z,49.30
2019-02-26T16:01:37.243Z,49.30
2019-02-26T16:04:08.892Z,50.30
2019-02-26T16:06:43.863Z,50.00
2019-02-26T16:14:18.198Z,52.90
2019-02-26T16:16:51.211Z,51.00
2019-02-26T16:19:23.445Z,53.20
2019-02-26T16:24:26.019Z,55.10
2019-02-26T16:31:58.953Z,54.20
2019-02-26T16:34:31.267Z,58.60
2019-02-26T16:44:39.910Z,55.60
2019-02-26T16:47:12.634Z,56.70
2019-02-26T16:54:48.989Z,57.50
2019-02-26T17:04:58.146Z,58.70
2019-02-26T17:10:06.217Z,59.80
2019-02-26T17:12:40.371Z,56.20
2019-02-26T17:25:22.320Z,56.30
2019-02-26T17:30:24.805Z,56.40
2019-02-26T18:03:16.816Z,54.80
2019-02-26T18:08:23.345Z,54.60
2019-02-26T18:13:28.273Z,54.80
2019-02-26T18:18:34.938Z,53.80
2019-02-26T18:21:06.592Z,52.70
2019-02-26T18:23:38.525Z,54.30
2019-02-26T18:26:09.962Z,54.10
2019-02-26T18:33:46.516Z,54.30
2019-02-26T18:41:22.035Z,54.10
2019-02-26T18:46:25.895Z,54.80
2019-02-26T18:48:57.552Z,54.00
2019-02-26T18:54:02.446Z,55.10
2019-02-26T18:56:38.664Z,55.50
2019-02-26T18:59:11.326Z,54.60
2019-02-26T19:01:45.001Z,54.80
2019-02-26T19:04:18.824Z,55.90
2019-02-26T19:11:52.810Z,55.60
2019-02-26T19:14:26.681Z,56.70
2019-02-26T19:16:58.295Z,56.30
2019-02-26T19:24:35.853Z,57.70
2019-02-26T19:27:08.468Z,59.80
2019-02-26T19:29:41.082Z,57.20
2019-02-26T19:32:15.414Z,57.60
2019-02-26T19:37:19.117Z,62.10
2019-02-26T19:39:53.921Z,62.10
2019-02-26T19:42:26.009Z,59.00
2019-02-26T19:44:58.330Z,62.80
2019-02-26T19:52:33.305Z,62.60
2019-02-26T19:55:06.016Z,60.50
2019-02-26T19:57:38.911Z,66.00
2019-02-26T20:02:43.315Z,66.00
2019-02-26T20:15:21.885Z,68.00
2019-02-26T20:17:54.010Z,69.90
2019-02-26T20:22:56.708Z,71.50
2019-02-26T20:28:05.320Z,66.80
2019-02-26T20:43:14.609Z,73.70
2019-02-26T20:53:18.960Z,67.30
2019-02-26T20:55:52.809Z,74.40
2019-02-26T20:58:23.776Z,68.90
2019-02-26T21:00:58.664Z,72.70
2019-02-26T21:13:37.397Z,74.40
2019-02-26T21:16:11.530Z,71.20
2019-02-26T21:18:42.989Z,74.30
2019-02-26T21:21:16.890Z,72.90
2019-02-26T21:28:53.732Z,73.50
2019-02-26T21:31:26.534Z,74.70
2019-02-26T21:39:00.125Z,74.90
2019-02-26T21:44:03.601Z,72.80
2019-02-26T21:46:37.442Z,76.10
2019-02-26T21:49:09.946Z,75.10
2019-02-26T21:54:17.264Z,72.60
2019-02-26T22:04:31.732Z,71.70
2019-02-26T22:07:02.110Z,74.70
2019-02-26T22:12:09.160Z,76.80
2019-02-26T22:14:41.173Z,73.60
2019-02-26T22:22:16.072Z,75.50
2019-02-26T22:29:49.819Z,77.90
2019-02-26T22:39:57.373Z,79.10
2019-02-26T22:42:28.949Z,80.70
2019-02-26T22:45:02.016Z,81.20
2019-02-26T22:50:09.510Z,80.60
2019-02-26T22:52:42.303Z,81.40
2019-02-26T23:01:05.811Z,82.70
2019-02-26T23:03:39.465Z,83.70
2019-02-26T23:06:12.041Z,75.50
2019-02-26T23:11:17.752Z,82.60
2019-02-26T23:13:49.811Z,81.50
2019-02-26T23:16:21.503Z,80.30
2019-02-26T23:21:24.863Z,81.70
2019-02-26T23:23:56.737Z,80.70
2019-02-26T23:26:28.611Z,81.10
2019-02-26T23:31:33.406Z,81.80
2019-02-26T23:36:38.094Z,80.70
2019-02-26T23:39:14.209Z,78.00
2019-02-26T23:41:47.141Z,81.50
2019-02-26T23:51:56.611Z,80.70
2019-02-26T23:54:27.870Z,82.10
2019-02-26T23:56:59.545Z,82.30
2019-02-26T23:59:34.787Z,82.50
